Terminal Aerodrome Forecast
Issued by NWS Wilmington, NC

Current Version | Previous Version | Graphics & Text | Print | Product List | Glossary Off
Versions: 1 2 3 4 5 6 7 8 9 10 11 12 13 14 15 16 17

978
FTUS42 KILM 111131
TAFFLO
TAF
KFLO 111131Z 1112/1212 26006KT P6SM SKC
     FM111600 29010G15KT P6SM SKC
     FM112300 26002KT P6SM SCT250
     FM120600 05005KT P6SM OVC050=

USA.gov is the U.S. government's official web portal to all federal, state and local government web resources and services.